sensor_id;sensor_type;location;lat;lon;timestamp;P1;durP1;ratioP1;P2;durP2;ratioP2
57846;SDS011;43675;50.030;21.952;2023-02-11T00:00:43;57.10;;;45.30;;
57846;SDS011;43675;50.030;21.952;2023-02-11T00:03:23;60.30;;;44.50;;
57846;SDS011;43675;50.030;21.952;2023-02-11T00:05:56;60.10;;;45.80;;
57846;SDS011;43675;50.030;21.952;2023-02-11T00:08:27;60.00;;;44.80;;
57846;SDS011;43675;50.030;21.952;2023-02-11T00:10:54;56.50;;;44.90;;
57846;SDS011;43675;50.030;21.952;2023-02-11T00:13:23;58.70;;;45.40;;
57846;SDS011;43675;50.030;21.952;2023-02-11T00:15:50;56.50;;;44.70;;
57846;SDS011;43675;50.030;21.952;2023-02-11T00:18:17;59.40;;;43.70;;
57846;SDS011;43675;50.030;21.952;2023-02-11T00:20:44;51.80;;;37.70;;
57846;SDS011;43675;50.030;21.952;2023-02-11T00:23:11;54.20;;;39.00;;
57846;SDS011;43675;50.030;21.952;2023-02-11T00:25:42;52.10;;;39.10;;
57846;SDS011;43675;50.030;21.952;2023-02-11T00:28:10;55.00;;;38.70;;
57846;SDS011;43675;50.030;21.952;2023-02-11T00:30:38;53.70;;;38.30;;
57846;SDS011;43675;50.030;21.952;2023-02-11T00:33:04;50.30;;;37.70;;
57846;SDS011;43675;50.030;21.952;2023-02-11T00:35:31;52.60;;;37.80;;
57846;SDS011;43675;50.030;21.952;2023-02-11T00:37:57;51.40;;;37.40;;
57846;SDS011;43675;50.030;21.952;2023-02-11T00:40:24;51.90;;;38.50;;
57846;SDS011;43675;50.030;21.952;2023-02-11T00:42:51;54.50;;;37.40;;
57846;SDS011;43675;50.030;21.952;2023-02-11T00:45:17;47.70;;;36.00;;
57846;SDS011;43675;50.030;21.952;2023-02-11T00:47:44;50.00;;;37.30;;
57846;SDS011;43675;50.030;21.952;2023-02-11T00:50:10;52.10;;;38.20;;
57846;SDS011;43675;50.030;21.952;2023-02-11T00:52:37;48.90;;;36.30;;
57846;SDS011;43675;50.030;21.952;2023-02-11T00:55:03;49.70;;;35.40;;
57846;SDS011;43675;50.030;21.952;2023-02-11T00:57:30;48.30;;;36.90;;
57846;SDS011;43675;50.030;21.952;2023-02-11T00:59:57;48.20;;;37.90;;
57846;SDS011;43675;50.030;21.952;2023-02-11T01:02:23;47.30;;;37.70;;
57846;SDS011;43675;50.030;21.952;2023-02-11T01:04:50;51.20;;;37.00;;
57846;SDS011;43675;50.030;21.952;2023-02-11T01:07:16;49.40;;;36.60;;
57846;SDS011;43675;50.030;21.952;2023-02-11T01:09:43;48.40;;;36.80;;
57846;SDS011;43675;50.030;21.952;2023-02-11T01:12:10;49.90;;;36.80;;
57846;SDS011;43675;50.030;21.952;2023-02-11T01:14:38;51.70;;;36.50;;
57846;SDS011;43675;50.030;21.952;2023-02-11T01:17:05;47.90;;;36.70;;
57846;SDS011;43675;50.030;21.952;2023-02-11T01:19:31;51.80;;;37.30;;
57846;SDS011;43675;50.030;21.952;2023-02-11T01:21:58;50.50;;;37.30;;
57846;SDS011;43675;50.030;21.952;2023-02-11T01:24:25;47.70;;;36.90;;
57846;SDS011;43675;50.030;21.952;2023-02-11T01:26:51;50.70;;;36.60;;
57846;SDS011;43675;50.030;21.952;2023-02-11T01:29:18;49.30;;;37.10;;
57846;SDS011;43675;50.030;21.952;2023-02-11T01:31:45;48.40;;;36.90;;
57846;SDS011;43675;50.030;21.952;2023-02-11T01:34:12;51.90;;;37.90;;
57846;SDS011;43675;50.030;21.952;2023-02-11T01:36:39;49.70;;;37.30;;
57846;SDS011;43675;50.030;21.952;2023-02-11T01:39:06;49.80;;;36.90;;
57846;SDS011;43675;50.030;21.952;2023-02-11T01:41:34;51.60;;;37.10;;
57846;SDS011;43675;50.030;21.952;2023-02-11T01:46:51;53.20;;;37.70;;
57846;SDS011;43675;50.030;21.952;2023-02-11T01:52:21;46.90;;;34.20;;
57846;SDS011;43675;50.030;21.952;2023-02-11T01:54:53;51.10;;;36.30;;
57846;SDS011;43675;50.030;21.952;2023-02-11T01:57:23;49.90;;;35.20;;
57846;SDS011;43675;50.030;21.952;2023-02-11T02:00:03;46.90;;;36.70;;
57846;SDS011;43675;50.030;21.952;2023-02-11T02:08:24;54.30;;;37.30;;
57846;SDS011;43675;50.030;21.952;2023-02-11T02:11:00;48.90;;;36.80;;
57846;SDS011;43675;50.030;21.952;2023-02-11T02:13:27;51.40;;;37.50;;
57846;SDS011;43675;50.030;21.952;2023-02-11T02:15:58;53.90;;;38.90;;
57846;SDS011;43675;50.030;21.952;2023-02-11T02:21:07;54.40;;;38.20;;
57846;SDS011;43675;50.030;21.952;2023-02-11T02:35:05;53.10;;;39.30;;
57846;SDS011;43675;50.030;21.952;2023-02-11T02:37:50;55.70;;;39.50;;
57846;SDS011;43675;50.030;21.952;2023-02-11T02:40:24;57.00;;;38.90;;
57846;SDS011;43675;50.030;21.952;2023-02-11T02:42:56;56.30;;;40.40;;
57846;SDS011;43675;50.030;21.952;2023-02-11T02:45:26;52.40;;;37.80;;
57846;SDS011;43675;50.030;21.952;2023-02-11T02:47:52;55.70;;;38.90;;
57846;SDS011;43675;50.030;21.952;2023-02-11T02:50:20;54.30;;;40.30;;
57846;SDS011;43675;50.030;21.952;2023-02-11T03:01:25;52.60;;;38.10;;
57846;SDS011;43675;50.030;21.952;2023-02-11T03:04:18;55.10;;;40.30;;
57846;SDS011;43675;50.030;21.952;2023-02-11T03:09:53;57.40;;;41.40;;
57846;SDS011;43675;50.030;21.952;2023-02-11T03:12:25;54.40;;;41.20;;
57846;SDS011;43675;50.030;21.952;2023-02-11T03:14:54;56.00;;;41.20;;
57846;SDS011;43675;50.030;21.952;2023-02-11T03:17:21;56.50;;;40.70;;
57846;SDS011;43675;50.030;21.952;2023-02-11T03:19:50;56.40;;;41.90;;
57846;SDS011;43675;50.030;21.952;2023-02-11T03:22:31;55.30;;;41.70;;
57846;SDS011;43675;50.030;21.952;2023-02-11T03:25:04;59.30;;;41.60;;
57846;SDS011;43675;50.030;21.952;2023-02-11T03:27:42;58.00;;;42.90;;
57846;SDS011;43675;50.030;21.952;2023-02-11T03:30:25;57.80;;;43.60;;
57846;SDS011;43675;50.030;21.952;2023-02-11T03:33:04;57.20;;;43.00;;
57846;SDS011;43675;50.030;21.952;2023-02-11T03:35:48;56.60;;;43.60;;
57846;SDS011;43675;50.030;21.952;2023-02-11T03:38:20;58.70;;;44.60;;
57846;SDS011;43675;50.030;21.952;2023-02-11T03:40:51;58.40;;;43.40;;
57846;SDS011;43675;50.030;21.952;2023-02-11T03:43:21;58.20;;;43.30;;
57846;SDS011;43675;50.030;21.952;2023-02-11T03:45:53;59.40;;;44.20;;
57846;SDS011;43675;50.030;21.952;2023-02-11T03:48:41;57.00;;;43.30;;
57846;SDS011;43675;50.030;21.952;2023-02-11T03:51:13;59.30;;;43.10;;
57846;SDS011;43675;50.030;21.952;2023-02-11T03:53:42;55.90;;;42.90;;
57846;SDS011;43675;50.030;21.952;2023-02-11T03:56:14;59.30;;;43.20;;
57846;SDS011;43675;50.030;21.952;2023-02-11T03:58:46;57.90;;;43.50;;
57846;SDS011;43675;50.030;21.952;2023-02-11T04:01:13;61.70;;;44.30;;
57846;SDS011;43675;50.030;21.952;2023-02-11T04:03:41;60.90;;;41.80;;
57846;SDS011;43675;50.030;21.952;2023-02-11T04:06:08;57.30;;;43.20;;
57846;SDS011;43675;50.030;21.952;2023-02-11T04:08:34;58.80;;;43.30;;
57846;SDS011;43675;50.030;21.952;2023-02-11T04:11:01;60.60;;;43.10;;
57846;SDS011;43675;50.030;21.952;2023-02-11T04:13:27;57.00;;;43.70;;
57846;SDS011;43675;50.030;21.952;2023-02-11T04:15:54;60.10;;;44.90;;
57846;SDS011;43675;50.030;21.952;2023-02-11T04:18:21;61.90;;;44.20;;
57846;SDS011;43675;50.030;21.952;2023-02-11T04:20:47;57.80;;;43.50;;
57846;SDS011;43675;50.030;21.952;2023-02-11T04:23:15;59.00;;;44.00;;
57846;SDS011;43675;50.030;21.952;2023-02-11T04:25:42;61.50;;;44.10;;
57846;SDS011;43675;50.030;21.952;2023-02-11T04:28:08;57.60;;;42.10;;
57846;SDS011;43675;50.030;21.952;2023-02-11T04:30:35;59.60;;;43.00;;
57846;SDS011;43675;50.030;21.952;2023-02-11T04:33:01;61.10;;;45.10;;
57846;SDS011;43675;50.030;21.952;2023-02-11T04:35:28;70.20;;;45.70;;
57846;SDS011;43675;50.030;21.952;2023-02-11T04:37:55;60.10;;;43.40;;
57846;SDS011;43675;50.030;21.952;2023-02-11T04:40:21;72.40;;;45.60;;
57846;SDS011;43675;50.030;21.952;2023-02-11T04:42:48;65.00;;;43.70;;
57846;SDS011;43675;50.030;21.952;2023-02-11T04:45:14;61.40;;;42.70;;
57846;SDS011;43675;50.030;21.952;2023-02-11T04:47:41;60.90;;;44.30;;
57846;SDS011;43675;50.030;21.952;2023-02-11T04:50:08;64.20;;;45.70;;
57846;SDS011;43675;50.030;21.952;2023-02-11T04:52:34;69.90;;;46.00;;
57846;SDS011;43675;50.030;21.952;2023-02-11T04:55:01;65.20;;;45.50;;
57846;SDS011;43675;50.030;21.952;2023-02-11T04:57:27;59.50;;;44.20;;
57846;SDS011;43675;50.030;21.952;2023-02-11T04:59:54;59.00;;;45.10;;
57846;SDS011;43675;50.030;21.952;2023-02-11T05:02:20;58.50;;;44.50;;
57846;SDS011;43675;50.030;21.952;2023-02-11T05:04:47;60.80;;;45.00;;
57846;SDS011;43675;50.030;21.952;2023-02-11T05:07:14;59.40;;;45.70;;
57846;SDS011;43675;50.030;21.952;2023-02-11T05:09:40;58.50;;;45.00;;
57846;SDS011;43675;50.030;21.952;2023-02-11T05:12:07;57.40;;;45.50;;
57846;SDS011;43675;50.030;21.952;2023-02-11T05:14:33;69.50;;;47.60;;
57846;SDS011;43675;50.030;21.952;2023-02-11T05:17:00;61.50;;;47.70;;
57846;SDS011;43675;50.030;21.952;2023-02-11T05:19:27;59.20;;;46.50;;
57846;SDS011;43675;50.030;21.952;2023-02-11T05:21:53;62.00;;;47.00;;
57846;SDS011;43675;50.030;21.952;2023-02-11T05:24:20;58.10;;;44.50;;
57846;SDS011;43675;50.030;21.952;2023-02-11T05:26:46;64.00;;;47.30;;
57846;SDS011;43675;50.030;21.952;2023-02-11T05:29:13;61.50;;;46.10;;
57846;SDS011;43675;50.030;21.952;2023-02-11T05:31:39;64.80;;;46.70;;
57846;SDS011;43675;50.030;21.952;2023-02-11T05:34:06;62.50;;;47.90;;
57846;SDS011;43675;50.030;21.952;2023-02-11T05:36:32;59.20;;;46.40;;
57846;SDS011;43675;50.030;21.952;2023-02-11T05:38:59;59.90;;;48.40;;
57846;SDS011;43675;50.030;21.952;2023-02-11T05:41:25;66.10;;;49.40;;
57846;SDS011;43675;50.030;21.952;2023-02-11T05:43:52;59.10;;;47.30;;
57846;SDS011;43675;50.030;21.952;2023-02-11T05:46:19;59.00;;;45.40;;
57846;SDS011;43675;50.030;21.952;2023-02-11T05:48:45;59.70;;;47.00;;
57846;SDS011;43675;50.030;21.952;2023-02-11T05:51:12;65.60;;;49.70;;
57846;SDS011;43675;50.030;21.952;2023-02-11T05:53:38;62.80;;;49.00;;
57846;SDS011;43675;50.030;21.952;2023-02-11T05:56:05;61.80;;;49.00;;
57846;SDS011;43675;50.030;21.952;2023-02-11T05:58:32;66.00;;;50.70;;
57846;SDS011;43675;50.030;21.952;2023-02-11T06:00:58;63.70;;;50.50;;
57846;SDS011;43675;50.030;21.952;2023-02-11T06:03:25;61.00;;;48.70;;
57846;SDS011;43675;50.030;21.952;2023-02-11T06:05:52;62.80;;;48.90;;
57846;SDS011;43675;50.030;21.952;2023-02-11T06:08:18;66.00;;;48.30;;
57846;SDS011;43675;50.030;21.952;2023-02-11T06:10:45;68.80;;;47.90;;
57846;SDS011;43675;50.030;21.952;2023-02-11T06:13:11;69.40;;;47.20;;
57846;SDS011;43675;50.030;21.952;2023-02-11T06:15:38;65.60;;;47.50;;
57846;SDS011;43675;50.030;21.952;2023-02-11T06:18:04;66.10;;;47.30;;
57846;SDS011;43675;50.030;21.952;2023-02-11T06:20:32;66.90;;;48.40;;
57846;SDS011;43675;50.030;21.952;2023-02-11T06:22:59;61.90;;;45.90;;
57846;SDS011;43675;50.030;21.952;2023-02-11T06:25:25;63.50;;;45.20;;
57846;SDS011;43675;50.030;21.952;2023-02-11T06:27:52;62.30;;;47.40;;
57846;SDS011;43675;50.030;21.952;2023-02-11T06:30:18;65.80;;;47.10;;
57846;SDS011;43675;50.030;21.952;2023-02-11T06:32:45;61.80;;;45.50;;
57846;SDS011;43675;50.030;21.952;2023-02-11T06:35:12;61.90;;;45.60;;
57846;SDS011;43675;50.030;21.952;2023-02-11T06:37:40;66.00;;;46.10;;
57846;SDS011;43675;50.030;21.952;2023-02-11T06:40:06;67.20;;;48.20;;
57846;SDS011;43675;50.030;21.952;2023-02-11T06:42:33;66.60;;;46.90;;
57846;SDS011;43675;50.030;21.952;2023-02-11T06:45:00;63.50;;;45.70;;
57846;SDS011;43675;50.030;21.952;2023-02-11T06:47:27;65.80;;;46.70;;
57846;SDS011;43675;50.030;21.952;2023-02-11T06:49:53;64.50;;;47.10;;
57846;SDS011;43675;50.030;21.952;2023-02-11T06:52:20;60.00;;;44.40;;
57846;SDS011;43675;50.030;21.952;2023-02-11T06:54:46;57.10;;;43.90;;
57846;SDS011;43675;50.030;21.952;2023-02-11T06:57:13;59.40;;;45.20;;
57846;SDS011;43675;50.030;21.952;2023-02-11T06:59:39;57.90;;;42.30;;
57846;SDS011;43675;50.030;21.952;2023-02-11T07:02:08;63.20;;;45.10;;
57846;SDS011;43675;50.030;21.952;2023-02-11T07:04:35;60.30;;;44.20;;
57846;SDS011;43675;50.030;21.952;2023-02-11T07:07:02;59.20;;;43.80;;
57846;SDS011;43675;50.030;21.952;2023-02-11T07:09:28;60.40;;;44.30;;
57846;SDS011;43675;50.030;21.952;2023-02-11T07:11:55;60.00;;;45.20;;
57846;SDS011;43675;50.030;21.952;2023-02-11T07:14:21;61.30;;;45.70;;
57846;SDS011;43675;50.030;21.952;2023-02-11T07:16:48;64.30;;;47.80;;
57846;SDS011;43675;50.030;21.952;2023-02-11T07:19:15;60.30;;;45.00;;
57846;SDS011;43675;50.030;21.952;2023-02-11T07:21:41;63.10;;;45.50;;
57846;SDS011;43675;50.030;21.952;2023-02-11T07:24:08;65.90;;;45.90;;
57846;SDS011;43675;50.030;21.952;2023-02-11T07:26:35;57.20;;;42.60;;
57846;SDS011;43675;50.030;21.952;2023-02-11T07:29:02;64.80;;;44.80;;
57846;SDS011;43675;50.030;21.952;2023-02-11T07:31:29;61.90;;;45.10;;
57846;SDS011;43675;50.030;21.952;2023-02-11T07:33:57;66.50;;;46.80;;
57846;SDS011;43675;50.030;21.952;2023-02-11T07:36:28;63.70;;;43.90;;
57846;SDS011;43675;50.030;21.952;2023-02-11T07:38:56;72.70;;;44.10;;
57846;SDS011;43675;50.030;21.952;2023-02-11T07:41:23;69.50;;;44.10;;
57846;SDS011;43675;50.030;21.952;2023-02-11T07:43:51;66.80;;;44.40;;
57846;SDS011;43675;50.030;21.952;2023-02-11T07:46:19;64.30;;;42.30;;
57846;SDS011;43675;50.030;21.952;2023-02-11T07:48:47;63.90;;;42.50;;
57846;SDS011;43675;50.030;21.952;2023-02-11T07:51:15;64.20;;;42.70;;
57846;SDS011;43675;50.030;21.952;2023-02-11T07:53:44;59.00;;;42.80;;
57846;SDS011;43675;50.030;21.952;2023-02-11T07:56:12;65.60;;;42.20;;
57846;SDS011;43675;50.030;21.952;2023-02-11T07:58:40;58.10;;;41.50;;
57846;SDS011;43675;50.030;21.952;2023-02-11T08:01:09;61.10;;;41.40;;
57846;SDS011;43675;50.030;21.952;2023-02-11T08:03:37;63.00;;;40.50;;
57846;SDS011;43675;50.030;21.952;2023-02-11T08:06:06;60.30;;;41.40;;
57846;SDS011;43675;50.030;21.952;2023-02-11T08:08:37;60.50;;;41.40;;
57846;SDS011;43675;50.030;21.952;2023-02-11T08:11:11;58.40;;;41.20;;
57846;SDS011;43675;50.030;21.952;2023-02-11T08:13:40;61.10;;;41.50;;
57846;SDS011;43675;50.030;21.952;2023-02-11T08:16:07;59.50;;;41.00;;
57846;SDS011;43675;50.030;21.952;2023-02-11T08:18:35;57.70;;;40.50;;
57846;SDS011;43675;50.030;21.952;2023-02-11T08:21:02;59.10;;;42.70;;
57846;SDS011;43675;50.030;21.952;2023-02-11T08:23:37;58.20;;;40.40;;
57846;SDS011;43675;50.030;21.952;2023-02-11T08:26:06;59.20;;;42.30;;
57846;SDS011;43675;50.030;21.952;2023-02-11T08:28:36;62.40;;;42.00;;
57846;SDS011;43675;50.030;21.952;2023-02-11T08:31:05;61.70;;;42.40;;
57846;SDS011;43675;50.030;21.952;2023-02-11T08:33:36;59.10;;;42.00;;
57846;SDS011;43675;50.030;21.952;2023-02-11T08:36:10;59.90;;;41.30;;
57846;SDS011;43675;50.030;21.952;2023-02-11T08:38:39;58.60;;;40.90;;
57846;SDS011;43675;50.030;21.952;2023-02-11T08:41:06;60.40;;;42.70;;
57846;SDS011;43675;50.030;21.952;2023-02-11T08:43:33;57.00;;;41.90;;
57846;SDS011;43675;50.030;21.952;2023-02-11T08:46:01;55.20;;;40.80;;
57846;SDS011;43675;50.030;21.952;2023-02-11T08:48:28;56.70;;;40.10;;
57846;SDS011;43675;50.030;21.952;2023-02-11T08:50:55;60.30;;;43.40;;
57846;SDS011;43675;50.030;21.952;2023-02-11T08:53:22;58.60;;;43.00;;
57846;SDS011;43675;50.030;21.952;2023-02-11T08:55:50;56.80;;;40.70;;
57846;SDS011;43675;50.030;21.952;2023-02-11T08:58:18;58.00;;;40.10;;
57846;SDS011;43675;50.030;21.952;2023-02-11T09:00:47;57.80;;;41.50;;
57846;SDS011;43675;50.030;21.952;2023-02-11T09:03:15;60.40;;;41.50;;
57846;SDS011;43675;50.030;21.952;2023-02-11T09:05:43;60.20;;;41.00;;
57846;SDS011;43675;50.030;21.952;2023-02-11T09:08:10;59.50;;;42.60;;
57846;SDS011;43675;50.030;21.952;2023-02-11T09:10:37;58.40;;;41.60;;
57846;SDS011;43675;50.030;21.952;2023-02-11T09:13:05;59.20;;;42.50;;
57846;SDS011;43675;50.030;21.952;2023-02-11T09:15:32;54.20;;;41.10;;
57846;SDS011;43675;50.030;21.952;2023-02-11T09:17:59;60.90;;;42.40;;
57846;SDS011;43675;50.030;21.952;2023-02-11T09:20:26;60.70;;;43.30;;
57846;SDS011;43675;50.030;21.952;2023-02-11T09:22:53;63.50;;;42.40;;
57846;SDS011;43675;50.030;21.952;2023-02-11T09:25:22;59.40;;;43.10;;
57846;SDS011;43675;50.030;21.952;2023-02-11T09:27:49;60.10;;;44.00;;
57846;SDS011;43675;50.030;21.952;2023-02-11T09:30:15;60.60;;;42.00;;
57846;SDS011;43675;50.030;21.952;2023-02-11T09:32:42;64.50;;;43.70;;
57846;SDS011;43675;50.030;21.952;2023-02-11T09:35:09;61.10;;;43.60;;
57846;SDS011;43675;50.030;21.952;2023-02-11T09:37:35;57.10;;;43.30;;
57846;SDS011;43675;50.030;21.952;2023-02-11T09:40:02;62.00;;;43.10;;
57846;SDS011;43675;50.030;21.952;2023-02-11T09:45:18;58.10;;;42.40;;
57846;SDS011;43675;50.030;21.952;2023-02-11T09:47:49;57.50;;;40.30;;
57846;SDS011;43675;50.030;21.952;2023-02-11T09:50:34;59.50;;;39.30;;
57846;SDS011;43675;50.030;21.952;2023-02-11T09:53:09;54.80;;;40.10;;
57846;SDS011;43675;50.030;21.952;2023-02-11T09:55:42;55.70;;;39.00;;
57846;SDS011;43675;50.030;21.952;2023-02-11T09:58:13;57.40;;;40.10;;
57846;SDS011;43675;50.030;21.952;2023-02-11T10:00:55;52.80;;;38.50;;
57846;SDS011;43675;50.030;21.952;2023-02-11T10:22:44;55.00;;;39.40;;
57846;SDS011;43675;50.030;21.952;2023-02-11T10:25:56;55.50;;;38.90;;
57846;SDS011;43675;50.030;21.952;2023-02-11T10:30:55;54.40;;;39.30;;
57846;SDS011;43675;50.030;21.952;2023-02-11T10:36:07;57.90;;;40.90;;
57846;SDS011;43675;50.030;21.952;2023-02-11T10:38:37;56.30;;;41.40;;
57846;SDS011;43675;50.030;21.952;2023-02-11T10:41:04;58.80;;;40.50;;
57846;SDS011;43675;50.030;21.952;2023-02-11T10:43:31;54.00;;;39.40;;
57846;SDS011;43675;50.030;21.952;2023-02-11T10:45:59;56.30;;;40.10;;
57846;SDS011;43675;50.030;21.952;2023-02-11T10:48:46;54.90;;;39.00;;
57846;SDS011;43675;50.030;21.952;2023-02-11T10:51:48;52.10;;;38.40;;
57846;SDS011;43675;50.030;21.952;2023-02-11T10:56:34;53.80;;;38.10;;
57846;SDS011;43675;50.030;21.952;2023-02-11T10:59:13;53.00;;;38.00;;
57846;SDS011;43675;50.030;21.952;2023-02-11T11:14:57;53.40;;;37.70;;
57846;SDS011;43675;50.030;21.952;2023-02-11T11:17:26;50.50;;;34.90;;
57846;SDS011;43675;50.030;21.952;2023-02-11T11:20:02;54.60;;;37.10;;
57846;SDS011;43675;50.030;21.952;2023-02-11T11:22:38;50.10;;;36.20;;
57846;SDS011;43675;50.030;21.952;2023-02-11T11:27:54;49.60;;;35.50;;
57846;SDS011;43675;50.030;21.952;2023-02-11T11:30:22;50.10;;;35.30;;
57846;SDS011;43675;50.030;21.952;2023-02-11T11:33:20;49.40;;;32.60;;
57846;SDS011;43675;50.030;21.952;2023-02-11T11:38:35;46.60;;;35.70;;
57846;SDS011;43675;50.030;21.952;2023-02-11T11:44:20;47.80;;;34.40;;
57846;SDS011;43675;50.030;21.952;2023-02-11T11:47:04;49.60;;;35.30;;
57846;SDS011;43675;50.030;21.952;2023-02-11T11:49:49;47.80;;;33.60;;
57846;SDS011;43675;50.030;21.952;2023-02-11T11:55:25;48.60;;;36.90;;
57846;SDS011;43675;50.030;21.952;2023-02-11T11:57:56;45.90;;;33.60;;
57846;SDS011;43675;50.030;21.952;2023-02-11T12:12:00;57.70;;;36.60;;
57846;SDS011;43675;50.030;21.952;2023-02-11T12:20:36;49.30;;;34.60;;
57846;SDS011;43675;50.030;21.952;2023-02-11T12:25:45;50.10;;;35.50;;
57846;SDS011;43675;50.030;21.952;2023-02-11T12:50:08;53.90;;;36.10;;
57846;SDS011;43675;50.030;21.952;2023-02-11T12:53:02;56.50;;;38.30;;
57846;SDS011;43675;50.030;21.952;2023-02-11T12:55:36;55.50;;;37.50;;
57846;SDS011;43675;50.030;21.952;2023-02-11T12:58:11;53.00;;;38.10;;
57846;SDS011;43675;50.030;21.952;2023-02-11T13:03:45;51.60;;;36.70;;
57846;SDS011;43675;50.030;21.952;2023-02-11T13:06:21;51.20;;;36.80;;
57846;SDS011;43675;50.030;21.952;2023-02-11T13:09:00;50.50;;;36.90;;
57846;SDS011;43675;50.030;21.952;2023-02-11T13:11:37;51.80;;;38.60;;
57846;SDS011;43675;50.030;21.952;2023-02-11T13:14:23;48.80;;;35.60;;
57846;SDS011;43675;50.030;21.952;2023-02-11T13:16:51;50.40;;;36.60;;
57846;SDS011;43675;50.030;21.952;2023-02-11T13:19:31;57.10;;;37.10;;
57846;SDS011;43675;50.030;21.952;2023-02-11T13:30:59;54.00;;;38.80;;
57846;SDS011;43675;50.030;21.952;2023-02-11T13:33:32;53.00;;;38.20;;
57846;SDS011;43675;50.030;21.952;2023-02-11T13:38:28;50.60;;;38.00;;
57846;SDS011;43675;50.030;21.952;2023-02-11T13:41:03;54.70;;;38.30;;
57846;SDS011;43675;50.030;21.952;2023-02-11T13:43:40;49.20;;;36.80;;
57846;SDS011;43675;50.030;21.952;2023-02-11T13:46:08;53.40;;;37.30;;
57846;SDS011;43675;50.030;21.952;2023-02-11T13:48:37;53.60;;;36.60;;
57846;SDS011;43675;50.030;21.952;2023-02-11T13:51:11;54.50;;;36.60;;
57846;SDS011;43675;50.030;21.952;2023-02-11T13:53:50;52.60;;;36.60;;
57846;SDS011;43675;50.030;21.952;2023-02-11T13:59:05;54.60;;;38.70;;
57846;SDS011;43675;50.030;21.952;2023-02-11T14:04:20;57.80;;;40.50;;
57846;SDS011;43675;50.030;21.952;2023-02-11T14:07:20;55.70;;;39.70;;
57846;SDS011;43675;50.030;21.952;2023-02-11T14:09:57;55.80;;;40.10;;
57846;SDS011;43675;50.030;21.952;2023-02-11T14:12:25;55.20;;;40.30;;
57846;SDS011;43675;50.030;21.952;2023-02-11T14:17:33;63.40;;;43.40;;
57846;SDS011;43675;50.030;21.952;2023-02-11T14:20:01;69.30;;;45.00;;
57846;SDS011;43675;50.030;21.952;2023-02-11T14:22:29;67.20;;;43.40;;
57846;SDS011;43675;50.030;21.952;2023-02-11T14:25:20;61.90;;;41.70;;
57846;SDS011;43675;50.030;21.952;2023-02-11T14:27:51;64.70;;;41.60;;
57846;SDS011;43675;50.030;21.952;2023-02-11T14:33:16;65.30;;;43.40;;
57846;SDS011;43675;50.030;21.952;2023-02-11T14:41:28;110.20;;;78.00;;
57846;SDS011;43675;50.030;21.952;2023-02-11T14:43:58;74.00;;;54.40;;
57846;SDS011;43675;50.030;21.952;2023-02-11T14:46:29;105.00;;;75.30;;
57846;SDS011;43675;50.030;21.952;2023-02-11T14:48:59;135.00;;;82.10;;
57846;SDS011;43675;50.030;21.952;2023-02-11T14:51:28;127.30;;;72.80;;
57846;SDS011;43675;50.030;21.952;2023-02-11T14:54:02;165.90;;;92.80;;
57846;SDS011;43675;50.030;21.952;2023-02-11T14:56:36;86.70;;;57.80;;
57846;SDS011;43675;50.030;21.952;2023-02-11T14:59:02;115.10;;;71.70;;
57846;SDS011;43675;50.030;21.952;2023-02-11T15:01:30;107.80;;;73.00;;
57846;SDS011;43675;50.030;21.952;2023-02-11T15:03:58;88.70;;;59.80;;
57846;SDS011;43675;50.030;21.952;2023-02-11T15:09:04;94.80;;;63.90;;
57846;SDS011;43675;50.030;21.952;2023-02-11T15:11:54;109.50;;;65.70;;
57846;SDS011;43675;50.030;21.952;2023-02-11T15:14:24;107.40;;;66.00;;
57846;SDS011;43675;50.030;21.952;2023-02-11T15:16:54;114.20;;;66.70;;
57846;SDS011;43675;50.030;21.952;2023-02-11T15:21:53;104.40;;;65.20;;
57846;SDS011;43675;50.030;21.952;2023-02-11T15:24:27;91.60;;;59.40;;
57846;SDS011;43675;50.030;21.952;2023-02-11T15:29:26;117.70;;;72.70;;
57846;SDS011;43675;50.030;21.952;2023-02-11T15:34:35;132.40;;;78.90;;
57846;SDS011;43675;50.030;21.952;2023-02-11T15:37:02;135.40;;;78.70;;
57846;SDS011;43675;50.030;21.952;2023-02-11T15:42:16;135.30;;;83.40;;
57846;SDS011;43675;50.030;21.952;2023-02-11T15:44:49;153.70;;;86.30;;
57846;SDS011;43675;50.030;21.952;2023-02-11T15:47:33;161.00;;;97.90;;
57846;SDS011;43675;50.030;21.952;2023-02-11T15:50:00;142.50;;;90.10;;
57846;SDS011;43675;50.030;21.952;2023-02-11T15:52:27;131.50;;;83.00;;
57846;SDS011;43675;50.030;21.952;2023-02-11T15:54:54;124.10;;;78.30;;
57846;SDS011;43675;50.030;21.952;2023-02-11T15:57:23;107.70;;;73.80;;
57846;SDS011;43675;50.030;21.952;2023-02-11T15:59:53;123.80;;;75.80;;
57846;SDS011;43675;50.030;21.952;2023-02-11T16:02:31;117.10;;;76.20;;
57846;SDS011;43675;50.030;21.952;2023-02-11T16:05:01;106.60;;;72.10;;
57846;SDS011;43675;50.030;21.952;2023-02-11T16:15:27;124.70;;;79.00;;
57846;SDS011;43675;50.030;21.952;2023-02-11T16:17:54;116.20;;;72.50;;
57846;SDS011;43675;50.030;21.952;2023-02-11T16:20:21;133.20;;;80.70;;
57846;SDS011;43675;50.030;21.952;2023-02-11T16:22:47;133.60;;;81.20;;
57846;SDS011;43675;50.030;21.952;2023-02-11T16:25:20;125.10;;;79.70;;
57846;SDS011;43675;50.030;21.952;2023-02-11T16:27:50;129.70;;;79.80;;
57846;SDS011;43675;50.030;21.952;2023-02-11T16:32:53;125.10;;;82.70;;
57846;SDS011;43675;50.030;21.952;2023-02-11T16:35:20;149.30;;;91.20;;
57846;SDS011;43675;50.030;21.952;2023-02-11T16:37:46;273.00;;;142.50;;
57846;SDS011;43675;50.030;21.952;2023-02-11T16:40:13;237.60;;;124.40;;
57846;SDS011;43675;50.030;21.952;2023-02-11T16:42:40;194.20;;;98.10;;
57846;SDS011;43675;50.030;21.952;2023-02-11T16:45:07;228.70;;;106.30;;
57846;SDS011;43675;50.030;21.952;2023-02-11T16:47:34;229.90;;;106.90;;
57846;SDS011;43675;50.030;21.952;2023-02-11T16:50:01;232.40;;;113.10;;
57846;SDS011;43675;50.030;21.952;2023-02-11T16:52:28;192.20;;;101.40;;
57846;SDS011;43675;50.030;21.952;2023-02-11T16:54:55;194.50;;;102.40;;
57846;SDS011;43675;50.030;21.952;2023-02-11T16:57:22;203.60;;;104.30;;
57846;SDS011;43675;50.030;21.952;2023-02-11T16:59:50;168.40;;;96.10;;
57846;SDS011;43675;50.030;21.952;2023-02-11T17:02:19;176.50;;;93.50;;
57846;SDS011;43675;50.030;21.952;2023-02-11T17:04:48;190.90;;;101.30;;
57846;SDS011;43675;50.030;21.952;2023-02-11T17:07:16;253.60;;;120.50;;
57846;SDS011;43675;50.030;21.952;2023-02-11T17:09:42;219.40;;;106.20;;
57846;SDS011;43675;50.030;21.952;2023-02-11T17:12:09;195.10;;;104.90;;
57846;SDS011;43675;50.030;21.952;2023-02-11T17:14:36;194.40;;;104.80;;
57846;SDS011;43675;50.030;21.952;2023-02-11T17:17:02;171.40;;;102.20;;
57846;SDS011;43675;50.030;21.952;2023-02-11T17:19:29;171.30;;;95.20;;
57846;SDS011;43675;50.030;21.952;2023-02-11T17:21:55;192.70;;;103.10;;
57846;SDS011;43675;50.030;21.952;2023-02-11T17:24:22;194.20;;;104.60;;
57846;SDS011;43675;50.030;21.952;2023-02-11T17:26:49;194.70;;;107.00;;
57846;SDS011;43675;50.030;21.952;2023-02-11T17:29:17;185.20;;;105.00;;